createdAt,value
2018-09-01T00:00:45.329Z,22.33
2018-09-01T00:03:13.620Z,22.60
2018-09-01T00:05:41.866Z,25.90
2018-09-01T00:08:10.069Z,24.73
2018-09-01T00:10:38.339Z,20.93
2018-09-01T00:13:06.716Z,26.17
2018-09-01T00:15:35.047Z,20.37
2018-09-01T00:18:03.299Z,21.37
2018-09-01T00:20:31.501Z,22.07
2018-09-01T00:22:59.731Z,22.90
2018-09-01T00:25:28.002Z,22.93
2018-09-01T00:27:56.285Z,25.30
2018-09-01T00:30:24.511Z,26.33
2018-09-01T00:32:53.123Z,25.40
2018-09-01T00:35:21.334Z,21.10
2018-09-01T00:37:54.930Z,22.23
2018-09-01T00:40:28.177Z,20.87
2018-09-01T00:42:57.953Z,20.33
2018-09-01T00:45:26.271Z,20.80
2018-09-01T00:47:54.702Z,25.60
2018-09-01T00:50:22.948Z,23.30
2018-09-01T00:52:51.245Z,21.03
2018-09-01T00:55:24.890Z,19.30
2018-09-01T00:57:53.386Z,19.97
2018-09-01T01:00:22.053Z,19.30
2018-09-01T01:02:50.902Z,18.87
2018-09-01T01:05:19.212Z,19.50
2018-09-01T01:07:47.446Z,20.23
2018-09-01T01:10:15.670Z,19.40
2018-09-01T01:12:44.115Z,20.80
2018-09-01T01:15:12.453Z,22.87
2018-09-01T01:17:40.652Z,21.10
2018-09-01T01:20:08.877Z,21.33
2018-09-01T01:22:37.165Z,18.03
2018-09-01T01:25:05.853Z,21.90
2018-09-01T01:27:34.213Z,19.57
2018-09-01T01:30:02.745Z,20.90
2018-09-01T01:32:31.054Z,18.63
2018-09-01T01:35:03.838Z,20.03
2018-09-01T01:37:33.655Z,18.40
2018-09-01T01:40:02.689Z,20.30
2018-09-01T01:42:31.261Z,24.73
2018-09-01T01:44:59.484Z,19.30
2018-09-01T01:47:27.690Z,19.10
2018-09-01T01:49:55.903Z,19.90
2018-09-01T01:52:24.273Z,19.50
2018-09-01T01:54:52.555Z,22.27
2018-09-01T01:57:20.846Z,25.93
2018-09-01T01:59:49.112Z,19.20
2018-09-01T02:02:17.343Z,22.70
2018-09-01T02:04:45.578Z,17.70
2018-09-01T02:07:13.825Z,18.07
2018-09-01T02:09:42.077Z,20.40
2018-09-01T02:12:10.593Z,19.40
2018-09-01T02:14:38.837Z,18.63
2018-09-01T02:17:07.036Z,18.57
2018-09-01T02:19:35.257Z,22.93
2018-09-01T02:22:03.489Z,23.23
2018-09-01T02:24:31.725Z,23.83
2018-09-01T02:26:59.922Z,22.40
2018-09-01T02:29:28.170Z,17.93
2018-09-01T02:31:56.365Z,16.90
2018-09-01T02:34:24.593Z,19.23
2018-09-01T02:36:52.823Z,17.20
2018-09-01T02:39:21.062Z,18.33
2018-09-01T02:41:49.285Z,17.93
2018-09-01T02:44:17.549Z,21.47
2018-09-01T02:46:45.806Z,20.17
2018-09-01T02:49:14.013Z,22.03
2018-09-01T02:51:42.237Z,17.80
2018-09-01T02:54:10.460Z,18.80
2018-09-01T02:56:38.710Z,20.60
2018-09-01T02:59:06.971Z,20.03
2018-09-01T03:01:37.715Z,18.67
2018-09-01T03:04:06.962Z,22.13
2018-09-01T03:06:57.627Z,19.73
2018-09-01T03:09:26.030Z,18.97
2018-09-01T03:11:55.340Z,19.20
2018-09-01T03:14:24.606Z,19.43
2018-09-01T03:16:53.705Z,20.60
2018-09-01T03:19:22.121Z,17.90
2018-09-01T03:21:50.377Z,21.07
2018-09-01T03:24:18.679Z,18.37
2018-09-01T03:26:46.934Z,17.77
2018-09-01T03:29:15.153Z,17.93
2018-09-01T03:31:43.383Z,20.20
2018-09-01T03:34:11.566Z,18.60
2018-09-01T03:36:39.907Z,22.00
2018-09-01T03:39:09.593Z,18.60
2018-09-01T03:41:44.457Z,17.80
2018-09-01T03:44:12.734Z,18.73
2018-09-01T03:46:40.919Z,17.30
2018-09-01T03:49:09.898Z,18.87
2018-09-01T03:51:38.139Z,16.20
2018-09-01T03:54:06.515Z,20.30
2018-09-01T03:56:34.701Z,18.87
2018-09-01T03:59:02.913Z,18.17
2018-09-01T04:01:31.137Z,18.20
2018-09-01T04:03:59.326Z,20.23
2018-09-01T04:06:27.526Z,17.67
2018-09-01T04:08:55.705Z,20.63
2018-09-01T04:11:23.965Z,17.90
2018-09-01T04:13:52.172Z,18.53
2018-09-01T04:16:20.465Z,21.83
2018-09-01T04:18:48.685Z,18.73
2018-09-01T04:21:16.911Z,17.07
2018-09-01T04:23:45.127Z,18.33
2018-09-01T04:26:13.300Z,18.87
2018-09-01T04:28:41.713Z,22.70
2018-09-01T04:31:09.902Z,19.07
2018-09-01T04:33:38.185Z,20.20
2018-09-01T04:36:06.414Z,18.30
2018-09-01T04:38:34.691Z,21.07
2018-09-01T04:41:02.950Z,19.00
2018-09-01T04:43:31.181Z,16.80
2018-09-01T04:45:59.416Z,17.87
2018-09-01T04:48:27.650Z,19.83
2018-09-01T04:50:55.851Z,19.47
2018-09-01T04:53:24.149Z,17.87
2018-09-01T04:55:52.392Z,20.60
2018-09-01T04:58:20.663Z,19.60
2018-09-01T05:00:48.919Z,25.87
2018-09-01T05:03:17.142Z,18.30
2018-09-01T05:05:45.361Z,18.03
2018-09-01T05:08:13.609Z,18.43
2018-09-01T05:10:41.897Z,16.20
2018-09-01T05:13:10.182Z,16.40
2018-09-01T05:15:38.449Z,16.13
2018-09-01T05:18:06.693Z,16.97
2018-09-01T05:20:34.896Z,21.00
2018-09-01T05:23:03.159Z,17.80
2018-09-01T05:25:31.399Z,18.00
2018-09-01T05:27:59.637Z,19.83
2018-09-01T05:30:27.861Z,18.20
2018-09-01T05:32:56.077Z,20.47
2018-09-01T05:35:24.414Z,18.53
2018-09-01T05:37:52.746Z,16.10
2018-09-01T05:40:21.000Z,16.60
2018-09-01T05:42:49.238Z,19.93
2018-09-01T05:45:17.433Z,15.50
2018-09-01T05:47:45.662Z,16.50
2018-09-01T05:50:14.036Z,15.63
2018-09-01T05:52:42.307Z,13.20
2018-09-01T05:55:10.517Z,13.90
2018-09-01T05:57:38.763Z,16.10
2018-09-01T06:00:07.685Z,18.83
2018-09-01T06:02:35.983Z,14.33
2018-09-01T06:05:04.711Z,16.27
2018-09-01T06:07:32.961Z,17.70
2018-09-01T06:10:01.209Z,15.17
2018-09-01T06:12:29.429Z,13.57
2018-09-01T06:14:57.701Z,18.33
2018-09-01T06:17:25.971Z,14.70
2018-09-01T06:19:54.245Z,14.07
2018-09-01T06:22:22.526Z,13.93
2018-09-01T06:24:50.786Z,15.43
2018-09-01T06:27:26.580Z,15.70
2018-09-01T06:29:54.809Z,13.30
2018-09-01T06:32:23.120Z,15.00
2018-09-01T06:34:51.330Z,12.90
2018-09-01T06:37:19.753Z,16.67
2018-09-01T06:39:47.985Z,15.03
2018-09-01T06:42:16.226Z,13.17
2018-09-01T06:44:44.473Z,15.50
2018-09-01T06:47:12.846Z,11.90
2018-09-01T06:49:41.135Z,14.53
2018-09-01T06:52:09.357Z,14.80
2018-09-01T06:54:37.632Z,14.03
2018-09-01T06:57:06.013Z,16.00
2018-09-01T06:59:34.237Z,13.87
2018-09-01T07:02:02.969Z,13.93
2018-09-01T07:04:31.179Z,15.00
2018-09-01T07:06:59.535Z,17.00
2018-09-01T07:09:27.729Z,14.50
2018-09-01T07:11:55.957Z,14.23
2018-09-01T07:14:24.204Z,13.23
2018-09-01T07:16:52.445Z,13.63
2018-09-01T07:19:20.656Z,15.97
2018-09-01T07:21:48.913Z,15.90
2018-09-01T07:24:17.175Z,14.63
2018-09-01T07:26:45.388Z,14.50
2018-09-01T07:29:13.611Z,15.20
2018-09-01T07:31:42.197Z,14.00
2018-09-01T07:34:10.820Z,13.60
2018-09-01T07:36:39.181Z,15.27
2018-09-01T07:39:07.950Z,13.67
2018-09-01T07:41:36.237Z,14.60
2018-09-01T07:44:04.543Z,13.23
2018-09-01T07:46:32.864Z,14.20
2018-09-01T07:49:01.097Z,12.30
2018-09-01T07:51:29.382Z,17.13
2018-09-01T07:53:57.733Z,18.67
2018-09-01T07:56:26.024Z,16.10
2018-09-01T07:58:54.292Z,15.30
2018-09-01T08:01:23.202Z,11.57
2018-09-01T08:03:51.449Z,11.40
2018-09-01T08:06:19.661Z,12.33
2018-09-01T08:08:47.890Z,10.90
2018-09-01T08:11:16.133Z,8.17
2018-09-01T08:13:44.418Z,11.60
2018-09-01T08:16:13.133Z,8.97
2018-09-01T08:18:41.402Z,10.00
2018-09-01T08:21:09.675Z,10.40
2018-09-01T08:23:37.920Z,9.23
2018-09-01T08:26:06.266Z,10.30
2018-09-01T08:28:34.393Z,10.53
2018-09-01T08:31:02.765Z,10.63
2018-09-01T08:33:30.984Z,8.90
2018-09-01T08:35:59.162Z,10.30
2018-09-01T08:38:27.431Z,12.67
2018-09-01T08:40:55.622Z,9.03
2018-09-01T08:43:23.862Z,9.53
2018-09-01T08:45:52.091Z,8.13
2018-09-01T08:48:20.289Z,9.03
2018-09-01T08:50:48.655Z,8.33
2018-09-01T08:53:16.895Z,7.20
2018-09-01T08:55:45.125Z,5.67
2018-09-01T08:58:13.416Z,7.00
2018-09-01T09:00:41.736Z,6.07
2018-09-01T09:03:10.020Z,6.43
2018-09-01T09:05:38.230Z,5.83
2018-09-01T09:08:06.591Z,6.90
2018-09-01T09:10:34.813Z,7.80
2018-09-01T09:13:03.000Z,9.57
2018-09-01T09:15:31.261Z,9.90
2018-09-01T09:17:59.520Z,8.67
2018-09-01T09:20:27.805Z,5.77
2018-09-01T09:22:56.053Z,9.40
2018-09-01T09:25:24.481Z,7.33
2018-09-01T09:27:52.963Z,5.47
2018-09-01T09:30:21.164Z,9.23
2018-09-01T09:32:49.389Z,6.03
2018-09-01T09:35:17.619Z,6.00
2018-09-01T09:37:45.851Z,8.97
2018-09-01T09:40:14.111Z,7.17
2018-09-01T09:42:42.322Z,5.40
2018-09-01T09:45:10.674Z,6.93
2018-09-01T09:47:42.197Z,9.90
2018-09-01T09:50:10.458Z,6.40
2018-09-01T09:52:38.641Z,6.83
2018-09-01T09:55:06.937Z,9.40
2018-09-01T09:57:35.221Z,5.33
2018-09-01T10:00:03.498Z,9.20
2018-09-01T10:02:31.717Z,5.47
2018-09-01T10:04:59.925Z,7.07
2018-09-01T10:07:28.126Z,5.77
2018-09-01T10:09:56.453Z,7.30
2018-09-01T10:12:24.733Z,6.10
2018-09-01T10:14:53.022Z,5.80
2018-09-01T10:17:21.305Z,8.20
2018-09-01T10:19:49.509Z,8.83
2018-09-01T10:22:17.785Z,6.37
2018-09-01T10:24:46.090Z,6.40
2018-09-01T10:27:14.382Z,5.43
2018-09-01T10:29:42.805Z,6.87
2018-09-01T10:32:11.095Z,6.90
2018-09-01T10:34:40.405Z,4.63
2018-09-01T10:37:08.656Z,6.73
2018-09-01T10:39:36.851Z,6.27
2018-09-01T10:42:05.198Z,11.27
2018-09-01T10:44:33.516Z,8.73
2018-09-01T10:47:01.714Z,5.93
2018-09-01T10:49:29.961Z,4.67
2018-09-01T10:51:58.226Z,7.70
2018-09-01T10:54:26.610Z,6.10
2018-09-01T10:56:54.843Z,5.53
2018-09-01T10:59:23.059Z,5.10
2018-09-01T11:01:51.278Z,8.10
2018-09-01T11:04:19.507Z,5.00
2018-09-01T11:06:47.817Z,8.47
2018-09-01T11:09:16.091Z,6.60
2018-09-01T11:11:44.344Z,10.50
2018-09-01T11:14:12.550Z,4.63
2018-09-01T11:16:40.785Z,4.70
2018-09-01T11:19:09.046Z,9.20
2018-09-01T11:21:37.435Z,7.40
2018-09-01T11:24:05.775Z,6.00
2018-09-01T11:26:34.125Z,6.23
2018-09-01T11:29:02.460Z,5.50
2018-09-01T11:31:30.733Z,9.53
2018-09-01T11:33:59.019Z,6.93
2018-09-01T11:36:27.389Z,7.50
2018-09-01T11:38:55.571Z,6.30
2018-09-01T11:41:23.847Z,4.23
2018-09-01T11:43:52.340Z,6.00
2018-09-01T11:46:21.184Z,8.07
2018-09-01T11:48:49.508Z,10.87
2018-09-01T11:51:17.792Z,5.03
2018-09-01T11:53:46.015Z,4.87
2018-09-01T11:56:14.212Z,5.43
2018-09-01T11:58:42.496Z,5.27
2018-09-01T12:01:10.682Z,7.30
2018-09-01T12:03:38.945Z,5.73
2018-09-01T12:06:07.334Z,3.63
2018-09-01T12:08:35.541Z,9.13
2018-09-01T12:11:03.780Z,6.63
2018-09-01T12:13:32.173Z,4.67
2018-09-01T12:16:00.414Z,4.27
2018-09-01T12:18:28.706Z,5.13
2018-09-01T12:20:56.987Z,6.80
2018-09-01T12:23:26.204Z,4.90
2018-09-01T12:25:54.413Z,7.27
2018-09-01T12:28:22.772Z,4.07
2018-09-01T12:30:51.156Z,6.23
2018-09-01T12:33:19.437Z,4.80
2018-09-01T12:35:47.663Z,8.23
2018-09-01T12:38:15.904Z,3.90
2018-09-01T12:40:44.114Z,3.93
2018-09-01T12:43:12.398Z,6.17
2018-09-01T12:45:40.865Z,3.97
2018-09-01T12:48:09.802Z,6.87
2018-09-01T12:50:38.025Z,4.90
2018-09-01T12:53:06.377Z,6.13
2018-09-01T12:55:34.569Z,5.77
2018-09-01T12:58:02.835Z,6.20
2018-09-01T13:00:31.185Z,4.07
2018-09-01T13:02:59.401Z,4.80
2018-09-01T13:05:27.666Z,5.33
2018-09-01T13:07:55.903Z,4.10
2018-09-01T13:10:24.145Z,4.33
2018-09-01T13:12:52.330Z,6.87
2018-09-01T13:15:20.564Z,6.40
2018-09-01T13:17:48.842Z,5.97
2018-09-01T13:20:17.050Z,5.43
2018-09-01T13:22:45.337Z,3.90
2018-09-01T13:25:13.672Z,11.27
2018-09-01T13:27:41.829Z,8.37
2018-09-01T13:30:10.065Z,4.07
2018-09-01T13:32:38.257Z,9.10
2018-09-01T13:35:06.466Z,5.70
2018-09-01T13:37:34.678Z,3.60
2018-09-01T13:40:03.052Z,8.30
2018-09-01T13:42:31.258Z,8.67
2018-09-01T13:44:59.485Z,4.23
2018-09-01T13:47:27.741Z,4.13
2018-09-01T13:49:55.958Z,4.37
2018-09-01T13:52:24.167Z,10.10
2018-09-01T13:54:52.609Z,6.13
2018-09-01T13:57:20.915Z,4.83
2018-09-01T13:59:49.057Z,6.63
2018-09-01T14:02:17.266Z,4.10
2018-09-01T14:04:45.862Z,3.80
2018-09-01T14:07:14.071Z,6.17
2018-09-01T14:09:42.314Z,4.17
2018-09-01T14:12:10.625Z,5.60
2018-09-01T14:14:38.934Z,8.60
2018-09-01T14:17:07.033Z,11.80
2018-09-01T14:19:35.266Z,5.93
2018-09-01T14:22:03.502Z,5.10
2018-09-01T14:24:31.765Z,6.20
2018-09-01T14:26:59.980Z,4.00
2018-09-01T14:29:28.369Z,5.67
2018-09-01T14:31:56.613Z,7.23
2018-09-01T14:34:25.809Z,5.60
2018-09-01T14:36:54.152Z,5.13
2018-09-01T14:39:22.360Z,3.83
2018-09-01T14:41:50.638Z,3.03
2018-09-01T14:44:18.974Z,8.03
2018-09-01T14:46:47.339Z,5.20
2018-09-01T14:49:15.490Z,6.53
2018-09-01T14:51:43.783Z,4.80
2018-09-01T14:54:12.238Z,9.03
2018-09-01T14:56:40.474Z,5.50
2018-09-01T14:59:08.685Z,4.47
2018-09-01T15:01:36.953Z,6.00
2018-09-01T15:04:05.209Z,5.40
2018-09-01T15:06:33.616Z,7.30
2018-09-01T15:09:01.856Z,9.53
2018-09-01T15:11:30.077Z,6.20
2018-09-01T15:13:58.306Z,4.63
2018-09-01T15:16:26.521Z,5.70
2018-09-01T15:18:54.780Z,3.77
2018-09-01T15:21:23.083Z,5.37
2018-09-01T15:23:51.325Z,4.17
2018-09-01T15:26:19.687Z,4.87
2018-09-01T15:28:47.946Z,4.53
2018-09-01T15:31:16.173Z,3.87
2018-09-01T15:33:44.409Z,4.63
2018-09-01T15:36:12.813Z,6.57
2018-09-01T15:38:41.058Z,11.40
2018-09-01T15:41:09.536Z,13.33
2018-09-01T15:43:37.777Z,7.97
2018-09-01T15:46:06.052Z,5.97
2018-09-01T15:48:34.226Z,3.70
2018-09-01T15:51:02.509Z,5.77
2018-09-01T15:53:37.535Z,8.67
2018-09-01T15:56:05.781Z,4.83
2018-09-01T15:58:33.948Z,11.63
2018-09-01T16:01:02.129Z,6.17
2018-09-01T16:03:30.612Z,5.93
2018-09-01T16:05:58.907Z,5.13
2018-09-01T16:08:27.072Z,6.27
2018-09-01T16:10:55.277Z,7.70
2018-09-01T16:13:23.475Z,5.43
2018-09-01T16:15:51.733Z,7.63
2018-09-01T16:18:19.976Z,9.23
2018-09-01T16:20:48.238Z,11.43
2018-09-01T16:23:16.481Z,4.70
2018-09-01T16:25:44.738Z,6.80
2018-09-01T16:28:13.005Z,7.23
2018-09-01T16:30:41.254Z,5.97
2018-09-01T16:33:09.477Z,8.70
2018-09-01T16:35:37.765Z,6.00
2018-09-01T16:38:05.965Z,6.07
2018-09-01T16:40:34.134Z,9.60
2018-09-01T16:43:02.324Z,10.30
2018-09-01T16:45:30.788Z,17.80
2018-09-01T16:47:58.998Z,10.90
2018-09-01T16:50:27.227Z,9.53
2018-09-01T16:52:55.468Z,7.57
2018-09-01T16:55:23.729Z,10.40
2018-09-01T16:57:51.970Z,9.60
2018-09-01T17:00:20.294Z,7.33
2018-09-01T17:02:48.461Z,9.47
2018-09-01T17:05:16.697Z,5.73
2018-09-01T17:07:44.952Z,7.10
2018-09-01T17:10:13.208Z,7.63
2018-09-01T17:12:41.433Z,8.00
2018-09-01T17:15:09.724Z,7.93
2018-09-01T17:17:37.989Z,9.00
2018-09-01T17:20:06.494Z,10.00
2018-09-01T17:22:34.949Z,7.07
2018-09-01T17:25:03.219Z,8.80
2018-09-01T17:27:31.393Z,8.27
2018-09-01T17:29:59.712Z,8.40
2018-09-01T17:32:27.980Z,7.00
2018-09-01T17:34:56.191Z,9.23
2018-09-01T17:37:24.721Z,7.90
2018-09-01T17:39:53.141Z,9.93
2018-09-01T17:42:21.483Z,7.53
2018-09-01T17:44:49.740Z,11.07
2018-09-01T17:47:18.029Z,7.83
2018-09-01T17:49:46.312Z,9.33
2018-09-01T17:52:14.606Z,10.00
2018-09-01T17:54:43.779Z,10.40
2018-09-01T17:57:12.193Z,9.33
2018-09-01T17:59:40.570Z,9.90
2018-09-01T18:02:09.203Z,8.37
2018-09-01T18:04:37.379Z,9.03
2018-09-01T18:07:05.717Z,9.83
2018-09-01T18:09:33.957Z,10.40
2018-09-01T18:12:02.193Z,9.27
2018-09-01T18:14:30.573Z,8.20
2018-09-01T18:16:58.825Z,10.03
2018-09-01T18:19:27.067Z,7.17
2018-09-01T18:21:55.382Z,7.57
2018-09-01T18:24:23.650Z,9.93
2018-09-01T18:26:51.867Z,8.83
2018-09-01T18:29:20.156Z,12.83
2018-09-01T18:31:48.401Z,9.40
2018-09-01T18:34:16.604Z,9.73
2018-09-01T18:36:44.887Z,7.83
2018-09-01T18:39:13.139Z,10.63
2018-09-01T18:41:41.446Z,8.03
2018-09-01T18:44:09.653Z,8.37
2018-09-01T18:46:37.853Z,10.53
2018-09-01T18:49:06.065Z,6.40
2018-09-01T18:51:34.354Z,6.80
2018-09-01T18:54:02.574Z,6.87
2018-09-01T18:56:30.808Z,8.77
2018-09-01T18:58:59.002Z,8.97
2018-09-01T19:01:27.248Z,12.03
2018-09-01T19:03:55.701Z,7.83
2018-09-01T19:06:23.981Z,12.40
2018-09-01T19:08:52.265Z,7.13
2018-09-01T19:11:20.482Z,8.67
2018-09-01T19:13:48.804Z,7.40
2018-09-01T19:16:17.032Z,8.40
2018-09-01T19:18:45.230Z,9.50
2018-09-01T19:21:13.465Z,9.83
2018-09-01T19:23:41.793Z,9.70
2018-09-01T19:26:10.122Z,8.87
2018-09-01T19:28:38.363Z,11.07
2018-09-01T19:31:06.602Z,10.00
2018-09-01T19:33:34.836Z,8.80
2018-09-01T19:36:03.101Z,11.40
2018-09-01T19:38:31.349Z,8.27
2018-09-01T19:40:59.599Z,8.83
2018-09-01T19:43:28.706Z,11.33
2018-09-01T19:45:56.939Z,8.70
2018-09-01T19:48:25.186Z,12.10
2018-09-01T19:50:53.397Z,10.90
2018-09-01T19:53:21.649Z,8.53
2018-09-01T19:55:49.967Z,12.73
2018-09-01T19:58:18.289Z,14.60
2018-09-01T20:00:46.461Z,10.40
2018-09-01T20:03:14.860Z,13.83
2018-09-01T20:05:43.239Z,11.43
2018-09-01T20:08:11.431Z,11.07
2018-09-01T20:10:39.722Z,11.07
2018-09-01T20:13:07.945Z,9.93
2018-09-01T20:15:36.246Z,9.73
2018-09-01T20:18:04.454Z,9.33
2018-09-01T20:20:32.673Z,11.50
2018-09-01T20:23:00.907Z,13.70
2018-09-01T20:25:29.174Z,14.90
2018-09-01T20:27:57.509Z,11.67
2018-09-01T20:30:25.827Z,11.57
2018-09-01T20:32:54.069Z,13.77
2018-09-01T20:35:27.670Z,10.57
2018-09-01T20:37:56.059Z,12.83
2018-09-01T20:40:24.255Z,11.70
2018-09-01T20:42:52.486Z,13.30
2018-09-01T20:45:20.675Z,11.20
2018-09-01T20:47:48.934Z,11.97
2018-09-01T20:50:17.190Z,11.60
2018-09-01T20:52:45.516Z,10.20
2018-09-01T20:55:13.793Z,12.43
2018-09-01T20:57:42.108Z,11.40
2018-09-01T21:00:10.241Z,10.10
2018-09-01T21:02:38.493Z,11.53
2018-09-01T21:05:06.765Z,12.77
2018-09-01T21:07:35.037Z,10.93
2018-09-01T21:10:03.402Z,9.73
2018-09-01T21:12:31.659Z,11.57
2018-09-01T21:14:59.867Z,12.73
2018-09-01T21:17:28.077Z,13.30
2018-09-01T21:19:56.335Z,16.60
2018-09-01T21:22:24.724Z,13.13
2018-09-01T21:24:53.093Z,11.80
2018-09-01T21:27:21.385Z,14.13
2018-09-01T21:29:49.633Z,10.97
2018-09-01T21:32:18.408Z,13.93
2018-09-01T21:34:46.748Z,14.57
2018-09-01T21:37:14.993Z,12.67
2018-09-01T21:39:43.455Z,14.67
2018-09-01T21:42:11.756Z,12.10
2018-09-01T21:44:40.064Z,14.30
2018-09-01T21:47:08.295Z,11.70
2018-09-01T21:49:36.584Z,14.17
2018-09-01T21:52:04.913Z,13.53
2018-09-01T21:54:33.125Z,12.20
2018-09-01T21:57:01.457Z,14.53
2018-09-01T21:59:29.693Z,11.27
2018-09-01T22:02:03.277Z,13.07
2018-09-01T22:04:36.835Z,13.40
2018-09-01T22:07:05.090Z,14.10
2018-09-01T22:09:33.361Z,11.60
2018-09-01T22:12:01.590Z,12.23
2018-09-01T22:14:30.178Z,14.30
2018-09-01T22:16:58.465Z,12.10
2018-09-01T22:19:26.974Z,16.80
2018-09-01T22:21:55.204Z,13.90
2018-09-01T22:24:23.636Z,15.00
2018-09-01T22:26:51.935Z,14.47
2018-09-01T22:29:20.131Z,15.63
2018-09-01T22:31:48.323Z,13.80
2018-09-01T22:34:16.601Z,16.20
2018-09-01T22:36:44.878Z,13.83
2018-09-01T22:39:13.121Z,17.50
2018-09-01T22:41:41.305Z,15.30
2018-09-01T22:44:09.525Z,14.30
2018-09-01T22:46:37.769Z,15.50
2018-09-01T22:49:06.034Z,15.17
2018-09-01T22:51:34.309Z,13.37
2018-09-01T22:54:02.629Z,13.50
2018-09-01T22:56:30.861Z,13.70
2018-09-01T22:58:59.133Z,14.20
2018-09-01T23:01:27.359Z,16.60
2018-09-01T23:03:55.577Z,16.37
2018-09-01T23:06:23.957Z,14.50
2018-09-01T23:08:52.166Z,14.53
2018-09-01T23:11:20.348Z,16.70
2018-09-01T23:13:48.605Z,15.83
2018-09-01T23:16:16.900Z,15.00
2018-09-01T23:18:45.097Z,15.53
2018-09-01T23:21:13.321Z,14.30
2018-09-01T23:23:41.540Z,13.87
2018-09-01T23:26:09.732Z,14.87
2018-09-01T23:31:12.734Z,16.00
2018-09-01T23:33:40.986Z,16.60
2018-09-01T23:36:09.115Z,15.57
2018-09-01T23:38:37.324Z,15.50
2018-09-01T23:41:05.582Z,15.50
2018-09-01T23:43:33.817Z,14.40
2018-09-01T23:46:02.050Z,16.03
2018-09-01T23:48:30.296Z,15.07
2018-09-01T23:50:58.513Z,15.60
2018-09-01T23:53:26.771Z,14.10
2018-09-01T23:55:54.988Z,14.33
2018-09-01T23:58:23.311Z,17.60
